Time;durP1;ratioP1;P1;durP2;ratioP2;P2;SDS_P1;SDS_P2;PMS_P1;PMS_P2;Temp;Humidity;BMP_temperature;BMP_pressure;BME280_temperature;BME280_humidity;BME280_pressure;Samples;Min_cycle;Max_cycle;Signal;HPM_P1;HPM_P2
2022/01/10 00:01:33;;;;;;;0.80;0.60;;;19.60;47.90;;;;;;6196719;28;20022;-67
2022/01/10 00:04:34;;;;;;;1.48;0.70;;;19.60;47.90;;;;;;6212472;28;20483;-67
2022/01/10 00:07:35;;;;;;;0.82;0.60;;;19.60;47.90;;;;;;6221056;28;20030;-66
2022/01/10 00:10:35;;;;;;;0.60;0.50;;;19.60;47.90;;;;;;6221314;28;20409;-66
2022/01/10 00:13:36;;;;;;;1.50;0.85;;;19.60;47.90;;;;;;6220338;28;20458;-67
2022/01/10 00:16:37;;;;;;;1.45;0.60;;;19.60;47.90;;;;;;6220806;28;20102;-66
2022/01/10 00:19:37;;;;;;;2.97;0.60;;;19.60;48.00;;;;;;6219093;28;20030;-66
2022/01/10 00:22:40;;;;;;;0.70;0.60;;;19.60;47.90;;;;;;6221135;28;20033;-67
2022/01/10 00:25:41;;;;;;;0.90;0.65;;;19.60;47.90;;;;;;6220457;28;20018;-67
2022/01/10 00:28:41;;;;;;;1.75;0.80;;;19.60;48.00;;;;;;6220434;28;20061;-67
2022/01/10 00:31:42;;;;;;;1.33;0.60;;;19.60;48.00;;;;;;6220335;28;20026;-66
2022/01/10 00:34:43;;;;;;;1.08;0.73;;;19.60;48.00;;;;;;6218843;28;20038;-67
2022/01/10 00:37:43;;;;;;;0.88;0.63;;;19.60;48.00;;;;;;6220248;28;20494;-66
2022/01/10 00:40:44;;;;;;;0.65;0.60;;;19.60;48.00;;;;;;6220041;28;20022;-66
2022/01/10 00:43:46;;;;;;;1.08;0.65;;;19.60;48.00;;;;;;6220183;28;20025;-66
2022/01/10 00:46:47;;;;;;;0.90;0.57;;;19.50;47.90;;;;;;6218653;28;20056;-66
2022/01/10 00:49:47;;;;;;;0.68;0.60;;;19.60;48.30;;;;;;6219889;28;20025;-67
2022/01/10 00:52:48;;;;;;;1.48;0.70;;;19.50;48.00;;;;;;6207870;28;20116;-66
2022/01/10 00:55:49;;;;;;;1.10;0.68;;;19.50;47.90;;;;;;6196151;28;20074;-66
2022/01/10 00:58:49;;;;;;;1.25;0.57;;;19.50;48.00;;;;;;6194195;28;20030;-67
2022/01/10 01:01:50;;;;;;;0.90;0.60;;;19.50;48.00;;;;;;6195439;28;20026;-66
2022/01/10 01:04:52;;;;;;;2.10;0.80;;;19.60;48.00;;;;;;6195493;28;20026;-66
2022/01/10 01:07:53;;;;;;;0.70;0.60;;;19.50;48.00;;;;;;6195303;28;20100;-67
2022/01/10 01:11:14;;;;;;;0.70;0.60;;;19.50;48.00;;;;;;6193827;28;20034;-66
2022/01/10 01:14:24;;;;;;;1.08;0.60;;;19.50;48.00;;;;;;6194937;28;20193;-66
2022/01/10 01:20:41;;;;;;;1.33;0.65;;;19.50;48.00;;;;;;6195402;28;20084;-66
2022/01/10 01:27:01;;;;;;;0.60;0.50;;;19.50;48.00;;;;;;6194822;28;20403;-66
2022/01/10 01:30:05;;;;;;;1.33;0.80;;;19.50;48.00;;;;;;6194817;28;20037;-66
2022/01/10 01:33:05;;;;;;;1.05;0.63;;;19.50;48.00;;;;;;6220132;28;20026;-66
2022/01/10 01:36:06;;;;;;;0.93;0.55;;;19.50;48.00;;;;;;6217825;28;20053;-67
2022/01/10 01:39:20;;;;;;;0.50;0.50;;;19.50;48.00;;;;;;6218767;28;20072;-67
2022/01/10 01:42:34;;;;;;;1.80;0.60;;;19.50;48.00;;;;;;6218951;28;20014;-66
2022/01/10 01:45:39;;;;;;;1.73;0.80;;;19.50;48.00;;;;;;6218984;28;20018;-66
2022/01/10 01:48:40;;;;;;;0.68;0.60;;;19.50;48.10;;;;;;6218815;28;20103;-66
2022/01/10 01:51:41;;;;;;;0.52;0.50;;;19.50;48.10;;;;;;6216080;28;20381;-66
2022/01/10 01:54:41;;;;;;;0.77;0.60;;;19.50;48.10;;;;;;6194627;28;20034;-67
2022/01/10 01:57:42;;;;;;;0.80;0.55;;;19.50;48.10;;;;;;6194275;28;20402;-67
2022/01/10 02:00:44;;;;;;;1.20;0.60;;;19.50;48.10;;;;;;6194418;28;20510;-67
2022/01/10 02:03:46;;;;;;;0.95;0.60;;;19.50;48.10;;;;;;6194127;28;20031;-66
2022/01/10 02:06:46;;;;;;;0.47;0.38;;;19.50;48.10;;;;;;6193265;28;20026;-67
2022/01/10 02:09:47;;;;;;;1.33;0.70;;;19.50;48.10;;;;;;6194144;28;20050;-66
2022/01/10 02:12:48;;;;;;;1.65;0.70;;;19.50;48.10;;;;;;6193139;28;20030;-67
2022/01/10 02:15:56;;;;;;;0.85;0.50;;;19.50;48.20;;;;;;6194040;28;20141;-67
2022/01/10 02:18:56;;;;;;;1.67;0.60;;;19.50;48.10;;;;;;6197391;28;20390;-66
2022/01/10 02:21:57;;;;;;;0.77;0.60;;;19.50;48.10;;;;;;6199276;28;20401;-66
2022/01/10 02:24:57;;;;;;;0.90;0.60;;;19.50;48.10;;;;;;6212613;28;20112;-66
2022/01/10 02:27:59;;;;;;;1.23;0.60;;;19.50;48.10;;;;;;6223284;28;20026;-66
2022/01/10 02:31:01;;;;;;;0.70;0.50;;;19.50;48.20;;;;;;6223520;28;20018;-66
2022/01/10 02:34:01;;;;;;;0.40;0.40;;;19.50;48.20;;;;;;6223058;28;20026;-66
2022/01/10 02:37:02;;;;;;;0.68;0.60;;;19.50;48.10;;;;;;6222837;28;20037;-67
2022/01/10 02:40:07;;;;;;;0.57;0.40;;;19.50;48.10;;;;;;6222724;28;20542;-66
2022/01/10 02:43:08;;;;;;;0.50;0.50;;;19.50;48.10;;;;;;6223070;28;20022;-67
2022/01/10 02:46:08;;;;;;;0.77;0.60;;;19.50;48.10;;;;;;6222833;28;20026;-66
2022/01/10 02:49:15;;;;;;;1.20;0.60;;;19.50;48.10;;;;;;6222707;28;20040;-67
2022/01/10 02:52:16;;;;;;;1.95;0.70;;;19.50;48.10;;;;;;6214966;28;20085;-66
2022/01/10 02:55:17;;;;;;;1.00;0.60;;;19.50;48.10;;;;;;6198991;28;20030;-67
2022/01/10 02:58:17;;;;;;;1.02;0.70;;;19.50;48.10;;;;;;6198221;28;20034;-66
2022/01/10 03:01:18;;;;;;;1.25;0.60;;;19.50;48.20;;;;;;6198368;28;20030;-66
2022/01/10 03:04:20;;;;;;;2.17;0.70;;;19.40;48.10;;;;;;6198242;28;20018;-66
2022/01/10 03:07:23;;;;;;;2.00;0.70;;;19.40;48.10;;;;;;6197942;28;20446;-67
2022/01/10 03:10:23;;;;;;;0.90;0.52;;;19.40;48.00;;;;;;6196597;28;20554;-66
2022/01/10 03:13:24;;;;;;;2.00;0.57;;;19.40;48.10;;;;;;6197828;28;20066;-66
2022/01/10 03:16:24;;;;;;;1.38;0.65;;;19.40;48.10;;;;;;6197937;28;20499;-66
2022/01/10 03:19:25;;;;;;;1.42;0.43;;;19.40;48.10;;;;;;6197579;28;20065;-66
2022/01/10 03:22:26;;;;;;;1.23;0.68;;;19.40;48.10;;;;;;6213119;28;20094;-67
2022/01/10 03:25:27;;;;;;;1.15;0.50;;;19.40;48.10;;;;;;6217464;28;20109;-66
2022/01/10 03:28:27;;;;;;;1.27;0.55;;;19.50;48.20;;;;;;6221325;28;20032;-67
2022/01/10 03:31:28;;;;;;;1.45;0.70;;;19.40;48.10;;;;;;6220739;28;20048;-66
2022/01/10 03:34:29;;;;;;;1.10;0.60;;;19.40;48.10;;;;;;6221910;28;20022;-66
2022/01/10 03:37:29;;;;;;;1.35;0.70;;;19.40;48.10;;;;;;6221916;28;20450;-67
2022/01/10 03:40:30;;;;;;;1.00;0.65;;;19.50;48.20;;;;;;6221913;28;20061;-66
2022/01/10 03:43:31;;;;;;;1.35;0.52;;;19.40;48.20;;;;;;6221708;28;20026;-67
2022/01/10 03:46:33;;;;;;;0.82;0.60;;;19.50;48.20;;;;;;6220802;28;20410;-66
2022/01/10 03:49:33;;;;;;;1.40;0.50;;;19.40;48.10;;;;;;6221915;28;20025;-67
2022/01/10 03:52:34;;;;;;;1.05;0.57;;;19.40;48.10;;;;;;6211580;28;20529;-66
2022/01/10 03:55:34;;;;;;;1.60;0.85;;;19.40;48.10;;;;;;6197296;28;20041;-66
2022/01/10 03:58:35;;;;;;;1.17;0.65;;;19.40;48.10;;;;;;6195785;28;20062;-66
2022/01/10 04:01:38;;;;;;;0.70;0.50;;;19.40;48.20;;;;;;6196875;28;20022;-66
2022/01/10 04:04:39;;;;;;;1.00;0.65;;;19.40;48.10;;;;;;6196907;28;20053;-66
2022/01/10 04:07:40;;;;;;;1.30;0.77;;;19.40;48.10;;;;;;6197409;28;20027;-66
2022/01/10 04:10:41;;;;;;;0.52;0.43;;;19.40;48.10;;;;;;6196814;28;20030;-66
2022/01/10 04:13:41;;;;;;;0.95;0.50;;;19.40;48.20;;;;;;6196485;28;20042;-67
2022/01/10 04:16:42;;;;;;;0.77;0.50;;;19.40;48.10;;;;;;6196954;28;20026;-66
2022/01/10 04:19:43;;;;;;;1.95;0.73;;;19.40;48.20;;;;;;6196555;28;20026;-66
2022/01/10 04:22:44;;;;;;;1.15;0.65;;;19.40;48.20;;;;;;6215124;28;20038;-67
2022/01/10 04:25:45;;;;;;;1.00;0.40;;;19.40;48.20;;;;;;6221052;28;20035;-66
2022/01/10 04:28:45;;;;;;;0.73;0.50;;;19.40;48.20;;;;;;6219456;28;20124;-66
2022/01/10 04:31:46;;;;;;;0.90;0.60;;;19.40;48.20;;;;;;6220551;28;20037;-66
2022/01/10 04:34:51;;;;;;;0.82;0.40;;;19.40;48.20;;;;;;6220500;28;20165;-66
2022/01/10 04:37:52;;;;;;;1.45;0.50;;;19.40;48.20;;;;;;6220667;28;20065;-66
2022/01/10 04:40:53;;;;;;;1.10;0.70;;;19.40;48.20;;;;;;6218413;28;20045;-66
2022/01/10 04:43:54;;;;;;;0.93;0.40;;;19.40;48.20;;;;;;6219940;28;20076;-67
2022/01/10 04:46:54;;;;;;;0.57;0.40;;;19.40;48.20;;;;;;6219983;28;20022;-66
2022/01/10 04:53:01;;;;;;;1.25;0.80;;;19.40;48.20;;;;;;6220027;28;20084;-66
2022/01/10 04:56:02;;;;;;;2.05;0.63;;;19.40;48.20;;;;;;6218689;28;20026;-66
2022/01/10 04:59:03;;;;;;;1.23;0.47;;;19.40;48.20;;;;;;6219680;28;20538;-66
2022/01/10 05:02:03;;;;;;;0.70;0.50;;;19.40;48.20;;;;;;6219800;28;20022;-66
2022/01/10 05:05:05;;;;;;;0.60;0.60;;;19.40;48.20;;;;;;6219471;28;20036;-66
2022/01/10 05:08:05;;;;;;;0.85;0.57;;;19.40;48.20;;;;;;6219795;28;20060;-66
2022/01/10 05:11:06;;;;;;;0.65;0.47;;;19.40;48.20;;;;;;6218120;28;20030;-67
2022/01/10 05:14:06;;;;;;;0.93;0.50;;;19.40;48.10;;;;;;6218549;28;20058;-66
2022/01/10 05:17:07;;;;;;;1.23;0.63;;;19.40;48.10;;;;;;6219453;28;20121;-67
2022/01/10 05:20:09;;;;;;;0.63;0.50;;;19.40;48.10;;;;;;6220072;28;20096;-66
2022/01/10 05:23:10;;;;;;;1.23;0.60;;;19.40;48.10;;;;;;6219457;28;20053;-66
2022/01/10 05:26:10;;;;;;;0.65;0.40;;;19.50;48.10;;;;;;6219938;28;20033;-66
2022/01/10 05:29:11;;;;;;;0.73;0.50;;;19.50;48.00;;;;;;6219539;28;20030;-66
2022/01/10 05:32:11;;;;;;;0.88;0.60;;;19.50;48.10;;;;;;6219033;28;20139;-66
2022/01/10 05:35:12;;;;;;;1.55;0.73;;;19.50;48.10;;;;;;6218926;28;20066;-66
2022/01/10 05:38:13;;;;;;;1.08;0.40;;;19.50;48.00;;;;;;6218860;28;20029;-66
2022/01/10 05:41:13;;;;;;;1.00;0.70;;;19.50;48.00;;;;;;6219181;28;20099;-67
2022/01/10 05:44:14;;;;;;;0.93;0.40;;;19.50;48.00;;;;;;6219165;28;20036;-67
2022/01/10 05:47:15;;;;;;;0.80;0.40;;;19.50;48.00;;;;;;6218900;28;20242;-66
2022/01/10 05:50:32;;;;;;;0.85;0.60;;;19.50;48.00;;;;;;6219646;28;20049;-67
2022/01/10 05:53:32;;;;;;;1.25;0.60;;;19.50;48.00;;;;;;6200319;28;20033;-66
2022/01/10 05:56:33;;;;;;;0.70;0.50;;;19.50;48.00;;;;;;6194505;28;20407;-66
2022/01/10 05:59:34;;;;;;;0.55;0.40;;;19.50;48.00;;;;;;6193165;28;20078;-67
2022/01/10 06:02:35;;;;;;;1.05;0.50;;;19.50;48.00;;;;;;6209152;28;20037;-66
2022/01/10 06:05:35;;;;;;;0.90;0.50;;;19.50;48.00;;;;;;6218936;28;20040;-66
2022/01/10 06:08:36;;;;;;;0.85;0.60;;;19.50;48.00;;;;;;6218695;28;20030;-66
2022/01/10 06:11:36;;;;;;;1.33;0.60;;;19.50;48.00;;;;;;6233888;28;20399;-67
2022/01/10 06:14:37;;;;;;;1.00;0.60;;;19.50;47.90;;;;;;6218836;28;20050;-67
2022/01/10 06:17:38;;;;;;;1.17;0.68;;;19.50;47.90;;;;;;6218851;28;20045;-67
2022/01/10 06:20:39;;;;;;;0.35;0.30;;;19.50;48.00;;;;;;6218584;28;20475;-67
2022/01/10 06:23:39;;;;;;;0.90;0.50;;;19.50;48.00;;;;;;6218765;28;20080;-67
2022/01/10 06:26:40;;;;;;;1.23;0.60;;;19.50;48.10;;;;;;6218554;28;20033;-66
2022/01/10 06:29:40;;;;;;;0.85;0.45;;;19.50;48.00;;;;;;6218637;28;20050;-67
2022/01/10 06:32:41;;;;;;;0.68;0.60;;;19.50;48.10;;;;;;6218134;28;20445;-66
2022/01/10 06:35:42;;;;;;;0.88;0.50;;;19.50;48.00;;;;;;6218797;28;20105;-66
2022/01/10 06:38:42;;;;;;;0.50;0.40;;;19.50;48.10;;;;;;6218042;28;20018;-67
2022/01/10 06:41:43;;;;;;;0.70;0.60;;;19.50;48.10;;;;;;6218873;28;20076;-67
2022/01/10 06:44:43;;;;;;;0.80;0.50;;;19.50;48.10;;;;;;6218164;28;20045;-67
2022/01/10 06:47:44;;;;;;;0.60;0.50;;;19.50;48.20;;;;;;6218494;28;20395;-67
2022/01/10 06:50:47;;;;;;;0.90;0.47;;;19.50;48.20;;;;;;6218380;28;20393;-66
2022/01/10 06:53:47;;;;;;;1.10;0.60;;;19.50;48.20;;;;;;6198474;28;20030;-67
2022/01/10 06:56:48;;;;;;;0.93;0.52;;;19.50;48.20;;;;;;6194339;28;20039;-67
2022/01/10 06:59:48;;;;;;;0.55;0.40;;;19.60;48.30;;;;;;6196023;28;20062;-66
2022/01/10 07:02:49;;;;;;;1.20;0.50;;;19.60;48.20;;;;;;6205747;28;20429;-66
2022/01/10 07:05:49;;;;;;;1.67;0.57;;;19.60;48.30;;;;;;6222212;28;20026;-67
2022/01/10 07:08:50;;;;;;;1.13;0.60;;;19.60;48.30;;;;;;6212576;28;20034;-66
2022/01/10 07:11:51;;;;;;;0.50;0.40;;;19.60;48.30;;;;;;6200203;28;20030;-67
2022/01/10 07:14:51;;;;;;;0.50;0.50;;;19.60;48.30;;;;;;6198569;28;20100;-67
2022/01/10 07:17:52;;;;;;;0.45;0.35;;;19.60;48.30;;;;;;6200004;28;20029;-67
2022/01/10 07:20:54;;;;;;;1.40;0.88;;;19.60;48.30;;;;;;6198605;28;20393;-67
2022/01/10 07:23:54;;;;;;;1.40;0.52;;;19.60;48.30;;;;;;6204884;28;20033;-67
2022/01/10 07:26:56;;;;;;;0.88;0.65;;;19.60;48.30;;;;;;6211749;28;20045;-68
2022/01/10 07:29:57;;;;;;;0.70;0.55;;;19.60;48.40;;;;;;6206345;28;20056;-68
2022/01/10 07:32:57;;;;;;;1.33;0.75;;;19.60;48.40;;;;;;6222863;28;20468;-68
2022/01/10 07:35:58;;;;;;;1.17;0.70;;;19.60;48.30;;;;;;6219864;28;20037;-68
2022/01/10 07:38:58;;;;;;;1.05;0.52;;;19.60;48.30;;;;;;6215547;28;20042;-68
2022/01/10 07:41:59;;;;;;;1.80;0.70;;;19.60;48.30;;;;;;6215009;28;20041;-69
2022/01/10 07:44:59;;;;;;;1.52;0.50;;;19.60;48.40;;;;;;6225482;28;20065;-68
2022/01/10 07:48:00;;;;;;;1.80;0.68;;;19.60;48.40;;;;;;6223072;28;20405;-68
2022/01/10 07:51:01;;;;;;;0.93;0.60;;;19.60;48.40;;;;;;6219305;28;20390;-68
2022/01/10 07:54:03;;;;;;;1.10;0.60;;;19.60;48.40;;;;;;6226023;28;20039;-68
2022/01/10 07:57:04;;;;;;;3.10;0.60;;;19.60;48.40;;;;;;6219773;28;20413;-68
2022/01/10 08:00:06;;;;;;;1.23;0.60;;;19.60;48.40;;;;;;6237703;28;20061;-68
2022/01/10 08:03:06;;;;;;;1.05;0.60;;;19.60;48.40;;;;;;6222508;28;20028;-68
2022/01/10 08:06:07;;;;;;;1.05;0.60;;;19.60;48.40;;;;;;6223211;28;20030;-68
2022/01/10 08:09:08;;;;;;;1.05;0.60;;;19.60;48.40;;;;;;6222518;28;20048;-68
2022/01/10 08:12:09;;;;;;;1.27;0.68;;;19.60;48.40;;;;;;6221723;28;20021;-68
2022/01/10 08:15:10;;;;;;;2.05;0.85;;;19.60;48.40;;;;;;6220995;28;20065;-68
2022/01/10 08:18:11;;;;;;;1.42;0.52;;;19.60;48.50;;;;;;6221435;28;20049;-68
2022/01/10 08:21:12;;;;;;;1.13;0.85;;;19.60;48.50;;;;;;6219932;28;20404;-67
2022/01/10 08:24:13;;;;;;;2.20;0.80;;;19.70;48.40;;;;;;6222224;28;20018;-67
2022/01/10 08:27:14;;;;;;;3.97;0.68;;;19.70;48.40;;;;;;6221381;28;20426;-68
2022/01/10 08:30:14;;;;;;;4.03;0.80;;;19.70;48.40;;;;;;6222456;28;20387;-67
2022/01/10 08:33:15;;;;;;;1.85;0.75;;;19.70;48.50;;;;;;6222337;28;20022;-68
2022/01/10 08:36:15;;;;;;;1.58;0.93;;;19.60;48.50;;;;;;6222037;28;20101;-68
2022/01/10 08:39:17;;;;;;;1.67;0.73;;;19.60;48.50;;;;;;6221671;28;20038;-68
2022/01/10 08:42:19;;;;;;;1.10;0.60;;;19.60;48.50;;;;;;6221922;28;20581;-68
2022/01/10 08:45:20;;;;;;;2.53;0.88;;;19.60;48.50;;;;;;6222475;28;20026;-68
2022/01/10 08:48:20;;;;;;;3.28;0.82;;;19.60;48.50;;;;;;6222162;28;20046;-68
2022/01/10 08:51:21;;;;;;;1.25;0.60;;;19.60;48.50;;;;;;6217840;28;20037;-68
2022/01/10 08:54:22;;;;;;;2.65;0.90;;;19.60;48.50;;;;;;6204543;28;20030;-67
2022/01/10 08:57:25;;;;;;;1.60;0.73;;;19.70;48.60;;;;;;6196285;28;20491;-68
2022/01/10 09:00:27;;;;;;;2.47;0.90;;;19.70;48.60;;;;;;6197452;28;20082;-68
2022/01/10 09:03:28;;;;;;;1.10;0.85;;;19.60;48.50;;;;;;6197897;28;20027;-68
2022/01/10 09:06:30;;;;;;;3.08;1.10;;;19.60;48.50;;;;;;6198453;28;20015;-68
2022/01/10 09:09:31;;;;;;;0.60;0.60;;;19.70;48.60;;;;;;6196229;28;20030;-68
2022/01/10 09:12:32;;;;;;;3.30;1.30;;;19.70;48.60;;;;;;6197077;28;20026;-68
2022/01/10 09:15:33;;;;;;;2.40;1.10;;;19.60;48.50;;;;;;6207186;28;20061;-68
2022/01/10 09:18:34;;;;;;;2.40;0.82;;;19.60;48.50;;;;;;6219611;28;20030;-68
2022/01/10 09:21:35;;;;;;;2.40;1.10;;;19.60;48.50;;;;;;6219813;28;20030;-68
2022/01/10 09:24:36;;;;;;;3.10;1.30;;;19.60;48.50;;;;;;6221219;28;20081;-68
2022/01/10 09:27:36;;;;;;;2.35;0.98;;;19.60;48.50;;;;;;6220121;28;20065;-68
2022/01/10 09:30:37;;;;;;;3.03;1.17;;;19.60;48.50;;;;;;6221063;28;20022;-68
2022/01/10 09:33:38;;;;;;;3.28;0.98;;;19.60;48.50;;;;;;6221117;28;20064;-68
2022/01/10 09:36:39;;;;;;;2.10;1.30;;;19.60;48.50;;;;;;6221298;28;20029;-68
2022/01/10 09:39:40;;;;;;;3.75;1.67;;;19.60;48.50;;;;;;6221044;28;20026;-68
2022/01/10 09:42:41;;;;;;;2.80;1.08;;;19.60;48.50;;;;;;6219682;28;20435;-68
2022/01/10 09:45:43;;;;;;;2.47;1.30;;;19.60;48.50;;;;;;6219876;28;20022;-68
2022/01/10 09:48:44;;;;;;;1.38;1.10;;;19.60;48.50;;;;;;6220426;28;20033;-68
2022/01/10 09:51:45;;;;;;;4.13;1.10;;;19.60;48.50;;;;;;6218429;28;20026;-70
2022/01/10 09:54:45;;;;;;;2.45;1.00;;;19.60;48.50;;;;;;6195036;28;20112;-68
2022/01/10 09:57:46;;;;;;;2.17;1.02;;;19.60;48.60;;;;;;6217433;28;20026;-68
2022/01/10 10:00:47;;;;;;;1.75;1.08;;;19.60;48.60;;;;;;6221158;28;20022;-69
2022/01/10 10:03:49;;;;;;;2.72;1.23;;;19.60;48.60;;;;;;6219096;28;20030;-70
2022/01/10 10:06:52;;;;;;;2.88;1.00;;;19.60;48.60;;;;;;6220080;28;20032;-70
2022/01/10 10:09:59;;;;;;;2.58;0.90;;;19.60;48.50;;;;;;6238927;28;20025;-70
2022/01/10 10:13:01;;;;;;;2.92;1.30;;;19.60;48.50;;;;;;6244586;28;20433;-70
2022/01/10 10:16:03;;;;;;;1.60;0.70;;;19.70;48.60;;;;;;6217422;28;20085;-70
2022/01/10 10:19:04;;;;;;;1.90;0.93;;;19.70;48.70;;;;;;6217748;28;20048;-70
2022/01/10 10:22:05;;;;;;;1.67;0.80;;;19.70;48.70;;;;;;6222865;28;20486;-70
2022/01/10 10:25:10;;;;;;;3.13;1.20;;;19.80;48.50;;;;;;6210491;28;20015;-70
2022/01/10 10:28:13;;;;;;;2.28;1.00;;;19.80;48.50;;;;;;6195950;28;20026;-70
2022/01/10 10:31:23;;;;;;;2.17;0.95;;;19.80;48.40;;;;;;6196530;28;20464;-70
2022/01/10 10:34:27;;;;;;;2.78;1.10;;;19.90;48.40;;;;;;6215621;28;20033;-70
2022/01/10 10:37:29;;;;;;;3.07;1.37;;;19.90;48.30;;;;;;6222452;28;20025;-70
2022/01/10 10:40:29;;;;;;;1.80;0.98;;;19.90;48.30;;;;;;6232304;28;20026;-70
2022/01/10 10:43:36;;;;;;;5.13;1.30;;;19.90;48.30;;;;;;6224817;28;20498;-70
2022/01/10 10:46:37;;;;;;;2.47;1.20;;;19.90;48.30;;;;;;6224740;28;20018;-70
2022/01/10 10:49:41;;;;;;;2.35;1.10;;;19.90;48.40;;;;;;6224778;28;20032;-70
2022/01/10 10:52:42;;;;;;;4.38;1.90;;;19.90;48.40;;;;;;6214684;28;20491;-71
2022/01/10 10:55:45;;;;;;;4.50;1.80;;;19.90;48.40;;;;;;6216986;28;20326;-70
2022/01/10 10:58:46;;;;;;;5.35;2.95;;;19.90;48.40;;;;;;6222620;28;20444;-70
2022/01/10 11:01:46;;;;;;;9.52;2.78;;;19.90;48.50;;;;;;6223913;28;20033;-70
2022/01/10 11:04:47;;;;;;;5.85;2.38;;;19.90;48.60;;;;;;6222343;28;20414;-70
2022/01/10 11:07:49;;;;;;;8.55;2.72;;;19.90;48.50;;;;;;6220274;28;20022;-71
2022/01/10 11:10:50;;;;;;;4.40;2.70;;;19.90;48.40;;;;;;6223644;28;20030;-71
2022/01/10 11:13:55;;;;;;;6.03;2.55;;;19.90;48.40;;;;;;6224352;28;20073;-71
2022/01/10 11:16:56;;;;;;;13.73;3.03;;;19.90;48.40;;;;;;6225042;28;20026;-70
2022/01/10 11:20:18;;;;;;;21.63;3.47;;;19.90;48.50;;;;;;6244995;28;20406;-71
2022/01/10 11:23:21;;;;;;;16.40;3.30;;;19.90;48.50;;;;;;6203025;28;20026;-70
2022/01/10 11:26:22;;;;;;;23.33;4.82;;;19.90;48.50;;;;;;6199454;28;20030;-71
2022/01/10 11:29:28;;;;;;;19.92;3.97;;;19.90;48.40;;;;;;6218864;28;20018;-70
2022/01/10 11:33:02;;;;;;;22.30;4.45;;;19.90;48.40;;;;;;6222481;28;20026;-70
2022/01/10 11:36:07;;;;;;;18.77;4.05;;;19.90;48.40;;;;;;6223261;28;20075;-70
2022/01/10 11:39:10;;;;;;;17.83;4.40;;;19.90;48.40;;;;;;6223412;28;20438;-71
2022/01/10 11:42:23;;;;;;;17.65;3.70;;;19.90;48.40;;;;;;6222396;28;20038;-71
2022/01/10 11:45:25;;;;;;;28.05;4.18;;;19.90;48.70;;;;;;6223629;28;20022;-71
2022/01/10 11:48:45;;;;;;;19.73;4.70;;;19.90;48.50;;;;;;6222815;28;20414;-71
2022/01/10 11:51:59;;;;;;;20.30;4.80;;;19.90;48.40;;;;;;6222408;28;20105;-70
2022/01/10 11:55:07;;;;;;;24.38;5.85;;;20.00;48.60;;;;;;6223862;28;20077;-71
2022/01/10 11:58:19;;;;;;;38.38;5.70;;;20.00;48.50;;;;;;6222553;28;20102;-70
2022/01/10 12:01:31;;;;;;;24.13;4.80;;;19.90;48.40;;;;;;6223017;28;20056;-70
2022/01/10 12:04:35;;;;;;;39.42;5.50;;;19.90;48.40;;;;;;6222807;28;20053;-70
2022/01/10 12:07:35;;;;;;;47.10;5.78;;;19.90;48.50;;;;;;6198188;28;20462;-70
2022/01/10 12:10:37;;;;;;;40.67;6.15;;;19.90;48.40;;;;;;6219184;28;20030;-71
2022/01/10 12:13:38;;;;;;;38.75;5.47;;;19.90;48.50;;;;;;6222935;28;20650;-70
2022/01/10 12:16:40;;;;;;;40.30;6.10;;;19.90;48.40;;;;;;6221725;28;20068;-71
2022/01/10 12:19:41;;;;;;;37.38;6.13;;;19.90;48.60;;;;;;6212674;28;20164;-71
2022/01/10 12:22:44;;;;;;;49.47;6.55;;;20.00;48.50;;;;;;6212362;28;20034;-70
2022/01/10 12:25:44;;;;;;;52.22;8.65;;;20.00;48.50;;;;;;6221321;28;20072;-70
2022/01/10 12:28:48;;;;;;;57.00;8.10;;;20.00;48.50;;;;;;6220816;28;20372;-71
2022/01/10 12:31:49;;;;;;;42.00;7.13;;;20.00;48.50;;;;;;6222263;28;20034;-70
2022/01/10 12:34:52;;;;;;;51.42;7.57;;;20.00;48.50;;;;;;6222129;28;20376;-71
2022/01/10 12:37:54;;;;;;;55.05;7.85;;;20.00;48.40;;;;;;6221988;28;20076;-70
2022/01/10 12:40:55;;;;;;;41.30;6.55;;;20.00;48.50;;;;;;6221075;28;20032;-70
2022/01/10 12:43:56;;;;;;;40.78;7.03;;;20.00;48.40;;;;;;6220980;28;20486;-70
2022/01/10 12:46:57;;;;;;;42.35;6.85;;;20.00;48.40;;;;;;6221511;28;20466;-72
2022/01/10 12:49:58;;;;;;;45.88;6.32;;;20.00;48.50;;;;;;6219580;28;20060;-70
2022/01/10 12:52:58;;;;;;;45.80;6.20;;;20.00;48.30;;;;;;6218817;28;20395;-70
2022/01/10 12:55:59;;;;;;;38.45;5.72;;;19.90;47.90;;;;;;6232544;28;20378;-71
2022/01/10 12:58:59;;;;;;;36.30;6.03;;;19.90;47.70;;;;;;6245767;28;20041;-70
2022/01/10 13:02:02;;;;;;;38.22;5.88;;;19.90;47.80;;;;;;6245771;28;20505;-70
2022/01/10 13:05:05;;;;;;;32.75;5.70;;;20.00;48.00;;;;;;6222604;28;20070;-71
2022/01/10 13:08:07;;;;;;;33.97;5.97;;;19.90;48.10;;;;;;6220627;28;20037;-70
2022/01/10 13:11:14;;;;;;;39.72;6.05;;;19.90;48.20;;;;;;6220721;28;20022;-71
2022/01/10 13:14:17;;;;;;;29.20;6.07;;;19.90;48.20;;;;;;6213476;28;20057;-71
2022/01/10 13:17:22;;;;;;;45.88;6.63;;;19.90;48.30;;;;;;6220994;28;20025;-70
2022/01/10 13:20:24;;;;;;;36.90;6.28;;;19.90;48.30;;;;;;6198138;28;20038;-71
2022/01/10 13:23:26;;;;;;;48.25;6.90;;;19.90;48.40;;;;;;6205095;28;20021;-71
2022/01/10 13:26:28;;;;;;;41.08;5.97;;;19.90;48.40;;;;;;6220108;28;20438;-70
2022/01/10 13:29:31;;;;;;;43.80;5.78;;;19.90;48.50;;;;;;6220842;28;20467;-70
2022/01/10 13:32:36;;;;;;;43.80;7.03;;;19.90;48.50;;;;;;6221293;28;20076;-71
2022/01/10 13:35:37;;;;;;;44.33;6.95;;;19.90;48.50;;;;;;6220213;28;20072;-71
2022/01/10 13:38:38;;;;;;;50.53;7.20;;;19.90;48.60;;;;;;6219450;28;20045;-71
2022/01/10 13:41:38;;;;;;;37.70;6.22;;;19.80;48.50;;;;;;6221156;28;20030;-71
2022/01/10 13:44:55;;;;;;;33.40;5.65;;;19.80;48.50;;;;;;6221027;28;20084;-70
2022/01/10 13:48:00;;;;;;;39.28;5.75;;;19.80;48.50;;;;;;6219343;28;20037;-70
2022/01/10 13:51:03;;;;;;;28.35;5.53;;;19.80;48.50;;;;;;6220905;28;20022;-71
2022/01/10 13:54:04;;;;;;;32.75;4.93;;;19.80;48.60;;;;;;6221320;28;20048;-70
2022/01/10 13:57:15;;;;;;;34.65;5.60;;;19.80;48.60;;;;;;6221202;28;20134;-71
2022/01/10 14:00:23;;;;;;;29.35;5.70;;;19.80;48.60;;;;;;6221184;28;20022;-71
2022/01/10 14:03:27;;;;;;;28.73;4.93;;;19.80;48.60;;;;;;6221468;28;20049;-71
2022/01/10 14:06:32;;;;;;;25.05;5.25;;;19.80;48.60;;;;;;6220869;28;20060;-71
2022/01/10 14:09:33;;;;;;;15.82;3.40;;;19.80;48.60;;;;;;6219256;28;20039;-71
2022/01/10 14:12:34;;;;;;;24.83;4.50;;;19.80;48.60;;;;;;6219373;28;20037;-70
2022/01/10 14:15:34;;;;;;;15.88;3.67;;;19.80;48.60;;;;;;6223575;28;20046;-71
2022/01/10 14:18:35;;;;;;;20.90;4.13;;;19.80;48.60;;;;;;6225573;28;20034;-71
2022/01/10 14:21:37;;;;;;;20.60;4.25;;;19.80;48.60;;;;;;6224220;28;20026;-71
2022/01/10 14:24:37;;;;;;;21.67;3.80;;;19.80;48.70;;;;;;6225055;28;20022;-70
2022/01/10 14:27:38;;;;;;;29.45;4.22;;;19.80;48.60;;;;;;6223744;28;20420;-71
2022/01/10 14:30:38;;;;;;;19.20;3.70;;;19.80;48.70;;;;;;6224008;28;20034;-71
2022/01/10 14:33:39;;;;;;;17.30;3.88;;;19.80;48.70;;;;;;6215950;28;20023;-70
2022/01/10 14:36:40;;;;;;;18.60;3.63;;;19.80;48.70;;;;;;6200784;28;20130;-71
2022/01/10 14:39:40;;;;;;;14.88;3.35;;;19.80;48.70;;;;;;6199460;28;20026;-71
2022/01/10 14:42:41;;;;;;;12.45;3.72;;;19.80;48.70;;;;;;6200803;28;20031;-72
2022/01/10 14:45:42;;;;;;;13.10;3.40;;;19.80;48.70;;;;;;6207141;28;20030;-71
2022/01/10 14:48:45;;;;;;;20.65;3.97;;;19.80;48.70;;;;;;6211755;28;20102;-71
2022/01/10 14:51:45;;;;;;;20.70;7.80;;;19.70;48.90;;;;;;6200442;28;20015;-71
2022/01/10 14:54:46;;;;;;;21.08;8.32;;;19.60;48.40;;;;;;6200033;28;20031;-70
2022/01/10 14:57:46;;;;;;;27.05;14.10;;;19.50;48.40;;;;;;6201677;28;20391;-71
2022/01/10 15:00:48;;;;;;;28.77;13.45;;;19.40;47.50;;;;;;6200576;28;20420;-71
2022/01/10 15:03:48;;;;;;;29.85;16.35;;;19.40;47.70;;;;;;6223145;28;20022;-71
2022/01/10 15:06:49;;;;;;;29.40;16.60;;;19.30;46.90;;;;;;6214325;28;20057;-71
2022/01/10 15:09:50;;;;;;;36.33;18.98;;;19.30;47.10;;;;;;6217768;28;20471;-71
2022/01/10 15:12:51;;;;;;;33.55;18.77;;;19.30;46.60;;;;;;6233464;28;20042;-71
2022/01/10 15:15:51;;;;;;;34.13;19.73;;;19.20;45.80;;;;;;6214126;28;20050;-71
2022/01/10 15:18:52;;;;;;;33.53;19.75;;;19.20;46.10;;;;;;6197897;28;20352;-71
2022/01/10 15:21:53;;;;;;;45.15;22.35;;;19.20;45.60;;;;;;6215670;28;20034;-71
2022/01/10 15:24:53;;;;;;;54.78;22.10;;;19.10;45.30;;;;;;6229036;28;20026;-71
2022/01/10 15:27:55;;;;;;;42.63;22.85;;;19.10;45.30;;;;;;6223455;28;20025;-71
2022/01/10 15:30:55;;;;;;;45.10;23.77;;;19.10;45.10;;;;;;6223028;28;20038;-71
2022/01/10 15:33:56;;;;;;;42.97;24.20;;;19.00;45.00;;;;;;6226611;28;20064;-71
2022/01/10 15:36:56;;;;;;;44.70;24.27;;;19.00;44.40;;;;;;6245609;28;20030;-71
2022/01/10 15:39:57;;;;;;;42.38;23.15;;;19.00;44.00;;;;;;6197850;28;20034;-71
2022/01/10 15:42:57;;;;;;;46.75;23.08;;;19.10;43.80;;;;;;6197844;28;20058;-71
2022/01/10 15:45:59;;;;;;;38.28;20.42;;;19.20;44.40;;;;;;6202582;28;20080;-72
2022/01/10 15:49:00;;;;;;;34.35;19.55;;;19.20;43.40;;;;;;6247628;28;20080;-71
2022/01/10 15:52:01;;;;;;;37.97;19.58;;;19.20;44.30;;;;;;6240932;28;20429;-71